Time;durP1;ratioP1;P1;durP2;ratioP2;P2;SDS_P1;SDS_P2;PMS_P1;PMS_P2;Temp;Humidity;BMP_temperature;BMP_pressure;BME280_temperature;BME280_humidity;BME280_pressure;Samples;Min_cycle;Max_cycle;Signal;HPM_P1;HPM_P2
2023/05/03 06:51:58;;;;;;;;;22.25;16.25;;;;;;;;6246010;22;1354365;-71
2023/05/03 06:54:23;;;;;;;;;23.25;18.25;;;;;;;;6371912;22;45195;-72
2023/05/03 06:56:49;;;;;;;;;19.50;19.25;;;;;;;;6371715;22;45335;-71
2023/05/03 06:59:15;;;;;;;;;20.75;16.75;;;;;;;;6372352;22;45209;-68
2023/05/03 07:01:40;;;;;;;;;26.25;19.25;;;;;;;;6342941;22;45197;-72
2023/05/03 07:04:05;;;;;;;;;23.50;19.50;;;;;;;;6372065;22;45221;-71
2023/05/03 07:06:31;;;;;;;;;22.00;15.00;;;;;;;;6369793;22;45700;-72
2023/05/03 07:08:56;;;;;;;;;25.00;19.50;;;;;;;;6372004;22;45213;-71
2023/05/03 07:11:24;;;;;;;;;21.50;20.75;;;;;;;;6371573;22;45220;-71
2023/05/03 07:13:50;;;;;;;;;22.50;20.00;;;;;;;;6371720;22;45323;-71
2023/05/03 07:16:15;;;;;;;;;22.75;16.75;;;;;;;;6371091;22;45351;-71
2023/05/03 07:18:41;;;;;;;;;17.50;17.50;;;;;;;;6372474;22;45175;-70
2023/05/03 07:21:06;;;;;;;;;30.75;28.25;;;;;;;;6372082;22;45281;-69
2023/05/03 07:23:31;;;;;;;;;41.00;34.75;;;;;;;;6372007;22;45430;-70
2023/05/03 07:25:56;;;;;;;;;20.75;18.75;;;;;;;;6372081;22;46028;-70
2023/05/03 07:28:22;;;;;;;;;21.25;18.50;;;;;;;;6372420;22;45269;-70
2023/05/03 07:30:47;;;;;;;;;19.25;15.00;;;;;;;;6370979;22;45269;-70
2023/05/03 07:33:12;;;;;;;;;22.50;18.50;;;;;;;;6372824;22;45204;-71
2023/05/03 07:35:37;;;;;;;;;21.50;15.75;;;;;;;;6371498;22;45219;-71
2023/05/03 07:38:03;;;;;;;;;19.00;17.50;;;;;;;;6372335;22;45291;-70
2023/05/03 07:40:31;;;;;;;;;22.67;22.00;;;;;;;;6372045;22;45246;-71
2023/05/03 07:42:57;;;;;;;;;19.67;16.67;;;;;;;;6372056;22;45255;-71
2023/05/03 07:45:22;;;;;;;;;18.00;17.00;;;;;;;;6371865;22;45676;-70
2023/05/03 07:47:47;;;;;;;;;25.00;20.33;;;;;;;;6372467;22;45209;-71
2023/05/03 07:50:12;;;;;;;;;16.33;15.00;;;;;;;;6371796;22;45261;-71
2023/05/03 07:52:38;;;;;;;;;17.67;17.00;;;;;;;;6342711;22;46464;-71
2023/05/03 07:55:04;;;;;;;;;13.67;12.33;;;;;;;;6343323;22;47202;-70
2023/05/03 07:57:29;;;;;;;;;23.00;20.00;;;;;;;;6372263;22;45233;-70
2023/05/03 07:59:55;;;;;;;;;16.33;15.33;;;;;;;;6343078;22;45329;-71
2023/05/03 08:02:20;;;;;;;;;18.33;16.33;;;;;;;;6371776;22;45436;-70
2023/05/03 08:04:45;;;;;;;;;21.00;18.00;;;;;;;;6371912;22;46009;-70
2023/05/03 08:07:12;;;;;;;;;17.00;16.33;;;;;;;;6370361;22;45321;-71
2023/05/03 08:09:37;;;;;;;;;19.67;14.33;;;;;;;;6371961;22;45283;-72
2023/05/03 08:12:02;;;;;;;;;14.67;14.67;;;;;;;;6370843;22;45268;-72
2023/05/03 08:14:28;;;;;;;;;19.67;16.00;;;;;;;;6371262;22;45689;-72
2023/05/03 08:16:54;;;;;;;;;21.67;18.00;;;;;;;;6371653;22;45174;-72
2023/05/03 08:19:19;;;;;;;;;16.67;14.33;;;;;;;;6372176;22;45231;-73
2023/05/03 08:21:46;;;;;;;;;17.00;14.00;;;;;;;;6370757;22;45164;-72
2023/05/03 08:24:12;;;;;;;;;18.67;17.00;;;;;;;;6371562;22;45995;-72
2023/05/03 08:26:38;;;;;;;;;19.67;17.33;;;;;;;;6371199;22;45151;-69
2023/05/03 08:29:03;;;;;;;;;23.33;17.33;;;;;;;;6372309;22;45558;-69
2023/05/03 08:31:30;;;;;;;;;16.67;13.00;;;;;;;;6343063;22;46273;-69
2023/05/03 08:33:55;;;;;;;;;18.33;16.67;;;;;;;;6370026;22;46103;-69
2023/05/03 08:36:20;;;;;;;;;14.67;14.67;;;;;;;;6370952;22;45230;-70
2023/05/03 08:38:45;;;;;;;;;17.00;16.33;;;;;;;;6371973;22;45352;-71
2023/05/03 08:41:17;;;;;;;;;19.67;18.33;;;;;;;;6371618;22;45443;-70
2023/05/03 08:43:43;;;;;;;;;17.33;15.00;;;;;;;;6371186;22;46584;-70
2023/05/03 08:46:12;;;;;;;;;15.67;15.00;;;;;;;;6341694;22;45576;-70
2023/05/03 08:48:37;;;;;;;;;18.67;15.67;;;;;;;;6371806;22;45183;-70
2023/05/03 08:51:03;;;;;;;;;17.00;14.67;;;;;;;;6369937;22;45633;-70
2023/05/03 08:53:28;;;;;;;;;17.00;14.33;;;;;;;;6371682;22;45289;-71
2023/05/03 08:55:54;;;;;;;;;13.67;11.00;;;;;;;;6342382;22;45312;-70
2023/05/03 08:58:19;;;;;;;;;13.00;13.00;;;;;;;;6342517;22;45368;-71
2023/05/03 09:00:44;;;;;;;;;17.00;14.00;;;;;;;;6371221;22;45171;-71
2023/05/03 09:03:10;;;;;;;;;16.00;12.00;;;;;;;;6371806;22;46358;-71
2023/05/03 09:05:37;;;;;;;;;12.00;10.00;;;;;;;;6370710;22;45226;-71
2023/05/03 09:08:04;;;;;;;;;14.33;14.33;;;;;;;;6371978;22;45201;-72
2023/05/03 09:10:30;;;;;;;;;11.67;11.67;;;;;;;;6370919;22;45267;-72
2023/05/03 09:13:00;;;;;;;;;13.00;11.67;;;;;;;;6371727;22;46142;-72
2023/05/03 09:15:26;;;;;;;;;15.00;13.33;;;;;;;;6370598;22;45150;-72
2023/05/03 09:18:07;;;;;;;;;13.67;13.67;;;;;;;;6370179;22;45210;-71
2023/05/03 09:20:36;;;;;;;;;15.00;13.67;;;;;;;;6370791;22;45172;-71
2023/05/03 09:23:02;;;;;;;;;13.00;11.67;;;;;;;;6369650;22;45512;-71
2023/05/03 09:25:43;;;;;;;;;18.33;15.67;;;;;;;;6371172;22;45233;-71
2023/05/03 09:28:08;;;;;;;;;17.00;13.00;;;;;;;;6372199;22;45292;-72
2023/05/03 09:30:33;;;;;;;;;11.33;11.00;;;;;;;;6371353;22;45192;-71
2023/05/03 09:32:59;;;;;;;;;13.67;12.00;;;;;;;;6342589;22;47386;-71
2023/05/03 09:35:24;;;;;;;;;12.33;11.00;;;;;;;;6369706;22;45663;-71
2023/05/03 09:37:50;;;;;;;;;16.67;12.67;;;;;;;;6372297;22;45798;-72
2023/05/03 09:40:17;;;;;;;;;15.00;11.00;;;;;;;;6372588;22;45492;-72
2023/05/03 09:43:01;;;;;;;;;15.67;12.67;;;;;;;;6372811;22;45280;-72
2023/05/03 09:45:26;;;;;;;;;15.33;14.00;;;;;;;;6343581;22;45644;-72
2023/05/03 09:47:52;;;;;;;;;16.00;15.00;;;;;;;;6344204;22;45343;-72
2023/05/03 09:50:18;;;;;;;;;18.33;15.00;;;;;;;;6343667;22;46527;-73
2023/05/03 09:52:43;;;;;;;;;13.33;13.33;;;;;;;;6371567;22;47515;-72
2023/05/03 09:55:08;;;;;;;;;16.67;13.00;;;;;;;;6372416;22;45172;-72
2023/05/03 09:57:33;;;;;;;;;11.00;9.67;;;;;;;;6373041;22;45546;-72
2023/05/03 09:59:59;;;;;;;;;16.00;14.67;;;;;;;;6372287;22;45492;-71
2023/05/03 10:02:25;;;;;;;;;14.33;13.67;;;;;;;;6372491;22;45386;-72
2023/05/03 10:04:55;;;;;;;;;14.67;12.00;;;;;;;;6372758;22;45289;-72
2023/05/03 10:07:22;;;;;;;;;13.00;13.00;;;;;;;;6372453;22;45151;-72
2023/05/03 10:09:47;;;;;;;;;11.67;11.00;;;;;;;;6372347;22;45221;-72
2023/05/03 10:12:16;;;;;;;;;17.33;13.00;;;;;;;;6372622;22;45928;-71
2023/05/03 10:14:42;;;;;;;;;13.67;12.67;;;;;;;;6372487;22;45298;-72
2023/05/03 10:17:12;;;;;;;;;11.00;11.00;;;;;;;;6372479;22;45208;-72
2023/05/03 10:19:50;;;;;;;;;9.67;9.67;;;;;;;;6372565;22;45303;-72
2023/05/03 10:22:15;;;;;;;;;12.67;11.00;;;;;;;;6372191;22;46116;-72
2023/05/03 10:24:56;;;;;;;;;14.75;10.00;;;;;;;;6372490;22;45229;-72
2023/05/03 10:27:21;;;;;;;;;8.00;8.00;;;;;;;;6373131;22;45273;-73
2023/05/03 10:29:49;;;;;;;;;12.50;12.00;;;;;;;;6372574;22;45164;-72
2023/05/03 10:32:27;;;;;;;;;13.00;11.00;;;;;;;;6372543;22;46017;-73
2023/05/03 10:34:58;;;;;;;;;11.25;10.75;;;;;;;;6372122;22;45286;-73
2023/05/03 10:37:25;;;;;;;;;10.75;10.75;;;;;;;;6372552;22;45160;-73
2023/05/03 10:39:51;;;;;;;;;15.75;12.75;;;;;;;;6372144;22;45290;-74
2023/05/03 10:42:16;;;;;;;;;11.00;11.00;;;;;;;;6372448;22;46276;-73
2023/05/03 10:44:47;;;;;;;;;15.25;11.25;;;;;;;;6343399;22;45286;-73
2023/05/03 10:47:17;;;;;;;;;16.75;15.00;;;;;;;;6372475;22;45433;-72
2023/05/03 10:49:42;;;;;;;;;14.00;11.00;;;;;;;;6343094;22;46150;-73
2023/05/03 10:52:26;;;;;;;;;11.75;11.00;;;;;;;;6371426;22;45922;-73
2023/05/03 10:54:51;;;;;;;;;13.00;13.00;;;;;;;;6343681;22;45306;-74
2023/05/03 10:57:17;;;;;;;;;13.25;9.75;;;;;;;;6372552;22;45257;-74
2023/05/03 10:59:46;;;;;;;;;10.50;9.25;;;;;;;;6372280;22;45289;-73
2023/05/03 11:02:15;;;;;;;;;12.00;11.25;;;;;;;;6372276;22;45172;-74
2023/05/03 11:04:43;;;;;;;;;29.33;28.33;;;;;;;;6372276;22;45293;-73
2023/05/03 11:07:09;;;;;;;;;11.75;11.75;;;;;;;;6371566;22;45294;-74
2023/05/03 11:09:34;;;;;;;;;12.00;11.75;;;;;;;;6372418;22;45218;-75
2023/05/03 11:12:02;;;;;;;;;15.75;12.25;;;;;;;;6370364;22;45502;-74
2023/05/03 11:14:28;;;;;;;;;11.50;10.50;;;;;;;;6371990;22;45179;-73
2023/05/03 11:16:56;;;;;;;;;9.00;9.00;;;;;;;;6372658;22;45164;-72
2023/05/03 11:19:21;;;;;;;;;9.50;9.50;;;;;;;;6372308;22;45277;-72
2023/05/03 11:21:47;;;;;;;;;10.25;9.00;;;;;;;;6371381;22;46953;-72
2023/05/03 11:24:12;;;;;;;;;11.00;10.00;;;;;;;;6372704;22;45261;-72
2023/05/03 11:26:37;;;;;;;;;14.75;13.75;;;;;;;;6371995;22;45377;-72
2023/05/03 11:29:03;;;;;;;;;9.50;8.00;;;;;;;;6343460;22;45879;-72
2023/05/03 11:31:29;;;;;;;;;10.50;10.50;;;;;;;;6371947;22;45253;-73
2023/05/03 11:33:55;;;;;;;;;11.25;9.00;;;;;;;;6372587;22;45237;-72
2023/05/03 11:36:20;;;;;;;;;9.00;9.00;;;;;;;;6371442;22;45221;-72
2023/05/03 11:38:45;;;;;;;;;11.00;11.00;;;;;;;;6372439;22;45150;-73
2023/05/03 11:41:15;;;;;;;;;9.00;8.50;;;;;;;;6371830;22;45266;-73
2023/05/03 11:43:43;;;;;;;;;10.00;8.50;;;;;;;;6370605;22;45380;-73
2023/05/03 11:46:08;;;;;;;;;14.50;10.50;;;;;;;;6343705;22;45302;-73
2023/05/03 11:48:34;;;;;;;;;11.00;10.75;;;;;;;;6371031;22;45417;-73
2023/05/03 11:51:06;;;;;;;;;9.00;8.75;;;;;;;;6371458;22;45389;-72
2023/05/03 11:53:32;;;;;;;;;7.75;7.75;;;;;;;;6372953;22;45387;-73
2023/05/03 11:55:57;;;;;;;;;8.00;8.00;;;;;;;;6372628;22;45266;-73
2023/05/03 11:58:26;;;;;;;;;12.25;11.00;;;;;;;;6342922;22;45526;-73
2023/05/03 12:00:55;;;;;;;;;11.25;9.00;;;;;;;;6370967;22;45147;-73
2023/05/03 12:03:20;;;;;;;;;11.75;11.75;;;;;;;;6372966;22;45332;-73
2023/05/03 12:05:46;;;;;;;;;10.75;10.00;;;;;;;;6372234;22;45317;-73
2023/05/03 12:08:12;;;;;;;;;10.25;9.50;;;;;;;;6344126;22;45464;-73
2023/05/03 12:10:37;;;;;;;;;9.00;8.00;;;;;;;;6371526;22;46075;-73
2023/05/03 12:13:02;;;;;;;;;8.50;7.25;;;;;;;;6372658;22;45209;-73
2023/05/03 12:15:29;;;;;;;;;8.50;8.50;;;;;;;;6372564;22;45258;-73
2023/05/03 12:17:58;;;;;;;;;8.75;8.75;;;;;;;;6370849;22;45429;-73
2023/05/03 12:20:23;;;;;;;;;9.00;8.50;;;;;;;;6342372;22;47782;-73
2023/05/03 12:22:50;;;;;;;;;12.75;11.00;;;;;;;;6370954;22;45202;-71
2023/05/03 12:25:15;;;;;;;;;12.50;11.00;;;;;;;;6343652;22;45372;-73
2023/05/03 12:27:40;;;;;;;;;9.00;9.00;;;;;;;;6372162;22;45250;-73
2023/05/03 12:30:09;;;;;;;;;11.00;10.75;;;;;;;;6370688;22;46068;-73
2023/05/03 12:32:34;;;;;;;;;11.25;11.25;;;;;;;;6372145;22;45306;-73
2023/05/03 12:34:59;;;;;;;;;10.25;9.00;;;;;;;;6371385;22;45547;-74
2023/05/03 12:37:24;;;;;;;;;8.50;7.50;;;;;;;;6343387;22;45340;-73
2023/05/03 12:39:50;;;;;;;;;8.75;8.75;;;;;;;;6372153;22;45354;-73
2023/05/03 12:42:15;;;;;;;;;10.25;8.50;;;;;;;;6372747;22;45225;-74
2023/05/03 12:44:41;;;;;;;;;9.00;9.00;;;;;;;;6373110;22;45117;-73
2023/05/03 12:47:06;;;;;;;;;8.75;7.00;;;;;;;;6371103;22;45452;-73
2023/05/03 12:49:31;;;;;;;;;10.00;10.00;;;;;;;;6371899;22;46122;-73
2023/05/03 12:51:59;;;;;;;;;7.25;4.25;;;;;;;;6342197;22;45500;-73
2023/05/03 12:54:24;;;;;;;;;11.50;8.00;;;;;;;;6372030;22;45164;-73
2023/05/03 12:56:50;;;;;;;;;8.25;8.25;;;;;;;;6371169;22;45790;-73
2023/05/03 12:59:15;;;;;;;;;12.00;11.00;;;;;;;;6371994;22;46201;-73
2023/05/03 13:01:41;;;;;;;;;9.75;9.75;;;;;;;;6371838;22;45460;-73
2023/05/03 13:04:06;;;;;;;;;9.50;7.50;;;;;;;;6372210;22;45240;-73
2023/05/03 13:06:31;;;;;;;;;8.50;8.25;;;;;;;;6371049;22;45238;-74
2023/05/03 13:08:57;;;;;;;;;11.00;9.50;;;;;;;;6371618;22;45524;-73
2023/05/03 13:11:23;;;;;;;;;9.25;9.25;;;;;;;;6370865;22;45328;-73
2023/05/03 13:13:50;;;;;;;;;10.50;9.50;;;;;;;;6371478;22;45246;-74
2023/05/03 13:16:15;;;;;;;;;8.25;8.25;;;;;;;;6371769;22;45250;-74
2023/05/03 13:18:41;;;;;;;;;8.50;8.50;;;;;;;;6371957;22;45405;-74
2023/05/03 13:21:07;;;;;;;;;9.75;8.75;;;;;;;;6371282;22;45482;-73
2023/05/03 13:23:32;;;;;;;;;10.25;9.50;;;;;;;;6371868;22;45224;-74
2023/05/03 13:25:58;;;;;;;;;10.00;9.00;;;;;;;;6371599;22;45547;-73
2023/05/03 13:28:23;;;;;;;;;8.25;5.50;;;;;;;;6372089;22;45420;-74
2023/05/03 13:30:49;;;;;;;;;6.25;5.25;;;;;;;;6371448;22;45250;-73
2023/05/03 13:33:14;;;;;;;;;8.50;8.50;;;;;;;;6369658;22;45214;-73
2023/05/03 13:35:39;;;;;;;;;8.00;7.00;;;;;;;;6370971;22;45225;-71
2023/05/03 13:38:04;;;;;;;;;10.00;8.75;;;;;;;;6371585;22;45405;-72
2023/05/03 13:40:30;;;;;;;;;5.75;5.75;;;;;;;;6371387;22;45496;-72
2023/05/03 13:42:55;;;;;;;;;7.50;6.00;;;;;;;;6343433;22;45341;-72
2023/05/03 13:45:20;;;;;;;;;9.25;9.25;;;;;;;;6371254;22;45311;-72
2023/05/03 13:47:45;;;;;;;;;12.25;7.75;;;;;;;;6342969;22;47203;-74
2023/05/03 13:50:11;;;;;;;;;7.25;7.00;;;;;;;;6371089;22;45301;-72
2023/05/03 13:52:36;;;;;;;;;6.00;6.00;;;;;;;;6370782;22;45203;-72
2023/05/03 13:55:02;;;;;;;;;8.75;8.75;;;;;;;;6371038;22;45231;-72
2023/05/03 13:57:28;;;;;;;;;8.20;8.20;;;;;;;;6371028;22;45306;-72
2023/05/03 13:59:53;;;;;;;;;8.00;6.75;;;;;;;;6371088;22;45269;-71
2023/05/03 14:02:18;;;;;;;;;9.00;9.00;;;;;;;;6371069;22;45521;-72
2023/05/03 14:04:45;;;;;;;;;9.50;9.25;;;;;;;;6371097;22;45371;-71
2023/05/03 14:07:10;;;;;;;;;9.00;7.00;;;;;;;;6371047;22;45624;-71
2023/05/03 14:09:38;;;;;;;;;8.00;8.00;;;;;;;;6371586;22;45249;-71
2023/05/03 14:12:03;;;;;;;;;6.00;6.00;;;;;;;;6370775;22;45214;-71
2023/05/03 14:14:28;;;;;;;;;8.00;7.00;;;;;;;;6370616;22;45258;-71
2023/05/03 14:16:54;;;;;;;;;6.00;6.00;;;;;;;;6371101;22;45255;-71
2023/05/03 14:19:19;;;;;;;;;8.50;7.75;;;;;;;;6371143;22;45077;-71
2023/05/03 14:21:48;;;;;;;;;7.75;7.75;;;;;;;;6371168;22;45187;-71
2023/05/03 14:24:13;;;;;;;;;9.25;9.25;;;;;;;;6372836;22;45199;-71
2023/05/03 14:26:38;;;;;;;;;9.00;8.75;;;;;;;;6372326;22;45281;-71
2023/05/03 14:29:04;;;;;;;;;8.50;6.75;;;;;;;;6373206;22;45298;-71
2023/05/03 14:31:30;;;;;;;;;6.75;6.75;;;;;;;;6372993;22;45468;-71
2023/05/03 14:33:55;;;;;;;;;8.25;7.25;;;;;;;;6372944;22;45334;-71
2023/05/03 14:36:21;;;;;;;;;6.50;6.50;;;;;;;;6370504;22;45469;-71
2023/05/03 14:38:46;;;;;;;;;8.75;6.00;;;;;;;;6372893;22;45359;-72
2023/05/03 14:41:12;;;;;;;;;7.00;7.00;;;;;;;;6373027;22;45172;-72
2023/05/03 14:43:37;;;;;;;;;9.25;6.75;;;;;;;;6372499;22;45265;-71
2023/05/03 14:46:02;;;;;;;;;8.75;7.50;;;;;;;;6372205;22;45297;-72
2023/05/03 14:48:27;;;;;;;;;8.50;7.25;;;;;;;;6372609;22;45431;-71
2023/05/03 14:50:53;;;;;;;;;7.75;6.50;;;;;;;;6342926;22;45290;-71
2023/05/03 14:53:18;;;;;;;;;8.75;6.50;;;;;;;;6372775;22;45198;-71
2023/05/03 14:55:43;;;;;;;;;7.00;7.00;;;;;;;;6372358;22;45366;-71
2023/05/03 14:58:09;;;;;;;;;6.00;6.00;;;;;;;;6372918;22;45117;-72
2023/05/03 15:00:39;;;;;;;;;7.50;6.00;;;;;;;;6372450;22;45214;-71
2023/05/03 15:03:04;;;;;;;;;8.25;8.25;;;;;;;;6371269;22;45254;-72
2023/05/03 15:05:29;;;;;;;;;10.25;7.75;;;;;;;;6371949;22;45892;-71
2023/05/03 15:07:54;;;;;;;;;6.00;6.00;;;;;;;;6372402;22;45281;-72
2023/05/03 15:10:20;;;;;;;;;10.25;7.75;;;;;;;;6343505;22;45257;-71
2023/05/03 15:12:46;;;;;;;;;10.00;8.00;;;;;;;;6372453;22;45123;-71
2023/05/03 15:15:11;;;;;;;;;7.00;7.00;;;;;;;;6372046;22;45240;-71
2023/05/03 15:17:36;;;;;;;;;5.50;4.75;;;;;;;;6372435;22;45142;-72
2023/05/03 15:20:03;;;;;;;;;4.00;4.00;;;;;;;;6372096;22;45128;-71
2023/05/03 15:22:28;;;;;;;;;4.25;4.25;;;;;;;;6371007;22;45471;-71
2023/05/03 15:24:53;;;;;;;;;5.00;5.00;;;;;;;;6372362;22;45532;-71
2023/05/03 15:27:18;;;;;;;;;5.25;5.00;;;;;;;;6372983;22;45273;-71
2023/05/03 15:29:44;;;;;;;;;4.00;4.00;;;;;;;;6372481;22;45160;-71
2023/05/03 15:32:09;;;;;;;;;5.25;5.25;;;;;;;;6372289;22;45246;-71
2023/05/03 15:34:36;;;;;;;;;5.00;5.00;;;;;;;;6343020;22;47686;-71
2023/05/03 15:37:01;;;;;;;;;5.60;3.20;;;;;;;;6371515;22;45303;-71
2023/05/03 15:39:26;;;;;;;;;3.50;3.50;;;;;;;;6372677;22;45289;-72
2023/05/03 15:41:51;;;;;;;;;5.00;4.75;;;;;;;;6372056;22;45257;-72
2023/05/03 15:44:17;;;;;;;;;6.25;6.25;;;;;;;;6372546;22;45268;-71
2023/05/03 15:46:43;;;;;;;;;4.75;4.00;;;;;;;;6372264;22;45273;-72
2023/05/03 15:49:08;;;;;;;;;3.00;3.00;;;;;;;;6372831;22;45308;-71
2023/05/03 15:51:33;;;;;;;;;4.25;4.25;;;;;;;;6371251;22;45196;-71
2023/05/03 15:53:58;;;;;;;;;6.75;6.75;;;;;;;;6372237;22;46084;-71
2023/05/03 15:56:24;;;;;;;;;6.00;6.00;;;;;;;;6372318;22;45241;-71
2023/05/03 15:58:50;;;;;;;;;4.00;4.00;;;;;;;;6372795;22;45270;-71
2023/05/03 16:01:15;;;;;;;;;5.50;4.75;;;;;;;;6372119;22;45418;-71
2023/05/03 16:03:41;;;;;;;;;4.50;3.00;;;;;;;;6372553;22;45442;-71
2023/05/03 16:06:08;;;;;;;;;3.00;3.00;;;;;;;;6343364;22;45262;-71
2023/05/03 16:08:33;;;;;;;;;3.50;3.50;;;;;;;;6372831;22;45166;-71
2023/05/03 16:10:58;;;;;;;;;4.50;4.50;;;;;;;;6372333;22;45159;-71
2023/05/03 16:13:23;;;;;;;;;4.75;4.00;;;;;;;;6372491;22;45269;-71
2023/05/03 16:15:52;;;;;;;;;3.25;3.00;;;;;;;;6343636;22;45281;-71
2023/05/03 16:18:18;;;;;;;;;6.00;4.25;;;;;;;;6372138;22;45315;-71
2023/05/03 16:20:43;;;;;;;;;6.25;5.00;;;;;;;;6342733;22;47445;-70
2023/05/03 16:23:08;;;;;;;;;6.00;5.00;;;;;;;;6371855;22;45234;-71
2023/05/03 16:25:33;;;;;;;;;8.00;8.00;;;;;;;;6371899;22;45294;-71
2023/05/03 16:27:59;;;;;;;;;5.00;5.00;;;;;;;;6372644;22;45231;-71
2023/05/03 16:30:24;;;;;;;;;4.25;4.25;;;;;;;;6371864;22;45261;-71
2023/05/03 16:32:51;;;;;;;;;5.00;5.00;;;;;;;;6371945;22;45292;-71
2023/05/03 16:35:16;;;;;;;;;5.50;3.00;;;;;;;;6342954;22;45210;-71
2023/05/03 16:37:41;;;;;;;;;7.00;6.25;;;;;;;;6372467;22;45122;-71
2023/05/03 16:40:10;;;;;;;;;10.25;9.75;;;;;;;;6372111;22;45113;-71
2023/05/03 16:42:38;;;;;;;;;8.50;6.00;;;;;;;;6343116;22;47700;-71
2023/05/03 16:45:06;;;;;;;;;5.25;4.00;;;;;;;;6371443;22;45297;-71
2023/05/03 16:47:32;;;;;;;;;8.50;7.25;;;;;;;;6372006;22;45428;-71
2023/05/03 16:49:57;;;;;;;;;5.00;4.75;;;;;;;;6371263;22;46136;-71
2023/05/03 16:52:22;;;;;;;;;7.00;5.00;;;;;;;;6341811;22;46691;-71
2023/05/03 16:54:48;;;;;;;;;7.75;6.00;;;;;;;;6371778;22;45143;-70
2023/05/03 16:57:13;;;;;;;;;4.00;4.00;;;;;;;;6372197;22;45094;-71
2023/05/03 16:59:38;;;;;;;;;5.00;5.00;;;;;;;;6371867;22;45325;-71
2023/05/03 17:02:03;;;;;;;;;4.25;4.25;;;;;;;;6371503;22;46539;-71
2023/05/03 17:04:28;;;;;;;;;5.25;4.00;;;;;;;;6343298;22;45183;-71
2023/05/03 17:06:55;;;;;;;;;4.50;4.50;;;;;;;;6371457;22;45294;-71
2023/05/03 17:09:21;;;;;;;;;7.25;6.75;;;;;;;;6372393;22;45330;-71
2023/05/03 17:11:46;;;;;;;;;6.00;6.00;;;;;;;;6371564;22;45359;-71
2023/05/03 17:14:12;;;;;;;;;4.25;3.25;;;;;;;;6371849;22;45232;-71
2023/05/03 17:16:40;;;;;;;;;5.25;4.00;;;;;;;;6343107;22;45320;-70
2023/05/03 17:19:06;;;;;;;;;5.25;5.25;;;;;;;;6342553;22;46702;-71
2023/05/03 17:21:31;;;;;;;;;7.00;5.75;;;;;;;;6342423;22;47392;-71
2023/05/03 17:23:57;;;;;;;;;6.25;6.25;;;;;;;;6371809;22;45198;-71
2023/05/03 17:26:22;;;;;;;;;5.50;5.50;;;;;;;;6372334;22;45419;-71
2023/05/03 17:28:47;;;;;;;;;6.00;6.00;;;;;;;;6343415;22;46498;-71
2023/05/03 17:31:12;;;;;;;;;5.25;4.25;;;;;;;;6371679;22;46234;-72
2023/05/03 17:33:37;;;;;;;;;5.00;4.00;;;;;;;;6372345;22;45351;-71
2023/05/03 17:36:03;;;;;;;;;6.25;3.75;;;;;;;;6342353;22;45324;-71
2023/05/03 17:38:29;;;;;;;;;5.00;5.00;;;;;;;;6372229;22;45189;-71
2023/05/03 17:40:54;;;;;;;;;6.00;5.00;;;;;;;;6371630;22;46342;-71
2023/05/03 17:43:20;;;;;;;;;3.50;3.50;;;;;;;;6371936;22;45137;-71
2023/05/03 17:45:46;;;;;;;;;4.25;3.00;;;;;;;;6343283;22;45205;-72
2023/05/03 17:48:11;;;;;;;;;4.00;4.00;;;;;;;;6343348;22;45920;-70
2023/05/03 17:50:36;;;;;;;;;6.50;4.25;;;;;;;;6371199;22;45210;-71
2023/05/03 17:53:02;;;;;;;;;4.00;4.00;;;;;;;;6372168;22;45301;-71
2023/05/03 17:55:27;;;;;;;;;6.00;3.67;;;;;;;;6371990;22;45281;-71
2023/05/03 17:57:52;;;;;;;;;1.00;1.00;;;;;;;;6344066;22;47304;-71
2023/05/03 18:00:20;;;;;;;;;3.00;3.00;;;;;;;;6372811;22;45850;-71
2023/05/03 18:02:45;;;;;;;;;2.67;2.67;;;;;;;;6343767;22;45321;-71
2023/05/03 18:05:11;;;;;;;;;5.00;3.33;;;;;;;;6344171;22;45265;-71
2023/05/03 18:07:36;;;;;;;;;6.33;6.33;;;;;;;;6344594;22;47089;-71
2023/05/03 18:10:01;;;;;;;;;4.00;4.00;;;;;;;;6372919;22;45267;-71
2023/05/03 18:12:27;;;;;;;;;5.67;4.67;;;;;;;;6373296;22;45178;-71
2023/05/03 18:14:58;;;;;;;;;4.00;3.33;;;;;;;;6373054;22;45238;-71
2023/05/03 18:17:23;;;;;;;;;4.33;4.33;;;;;;;;6373009;22;45977;-71
2023/05/03 18:19:48;;;;;;;;;4.67;4.67;;;;;;;;6372541;22;46071;-71
2023/05/03 18:22:14;;;;;;;;;5.67;4.67;;;;;;;;6371809;22;45319;-71
2023/05/03 18:24:39;;;;;;;;;4.67;3.33;;;;;;;;6373563;22;45234;-72
2023/05/03 18:27:04;;;;;;;;;5.33;5.33;;;;;;;;6343828;22;45805;-70
2023/05/03 18:29:29;;;;;;;;;9.67;5.00;;;;;;;;6372839;22;45786;-71
2023/05/03 18:31:56;;;;;;;;;8.00;5.67;;;;;;;;6372680;22;45238;-71
2023/05/03 18:34:21;;;;;;;;;5.00;4.00;;;;;;;;6373500;22;45272;-71
2023/05/03 18:36:46;;;;;;;;;6.00;5.67;;;;;;;;6372409;22;45260;-71
2023/05/03 18:39:11;;;;;;;;;6.00;5.33;;;;;;;;6373307;22;45956;-71
2023/05/03 18:41:37;;;;;;;;;4.00;4.00;;;;;;;;6372801;22;45214;-71
2023/05/03 18:44:02;;;;;;;;;5.33;4.00;;;;;;;;6372957;22;45357;-71
2023/05/03 18:46:27;;;;;;;;;4.33;4.33;;;;;;;;6372068;22;45350;-71
2023/05/03 18:48:53;;;;;;;;;5.00;5.00;;;;;;;;6373059;22;46222;-70
2023/05/03 18:51:18;;;;;;;;;7.00;5.00;;;;;;;;6370950;22;45337;-71
2023/05/03 18:53:43;;;;;;;;;4.33;4.33;;;;;;;;6373040;22;45386;-71
2023/05/03 18:56:09;;;;;;;;;6.33;5.00;;;;;;;;6372374;22;45316;-70
2023/05/03 18:58:34;;;;;;;;;5.00;5.00;;;;;;;;6371986;22;46192;-70
2023/05/03 19:00:59;;;;;;;;;6.67;5.00;;;;;;;;6371868;22;45181;-70
2023/05/03 19:03:28;;;;;;;;;4.67;4.67;;;;;;;;6372729;22;45222;-68
2023/05/03 19:05:54;;;;;;;;;5.67;3.33;;;;;;;;6371817;22;45484;-68
2023/05/03 19:08:19;;;;;;;;;6.00;6.00;;;;;;;;6372546;22;45262;-70
2023/05/03 19:10:44;;;;;;;;;5.33;4.00;;;;;;;;6372495;22;45224;-71
2023/05/03 19:13:10;;;;;;;;;5.33;5.33;;;;;;;;6372823;22;45257;-70
2023/05/03 19:15:35;;;;;;;;;5.33;4.33;;;;;;;;6372017;22;45245;-70
2023/05/03 19:18:00;;;;;;;;;8.00;6.67;;;;;;;;6372552;22;45289;-71
2023/05/03 19:20:25;;;;;;;;;6.00;5.33;;;;;;;;6372004;22;45344;-70
2023/05/03 19:22:51;;;;;;;;;6.00;6.00;;;;;;;;6372998;22;45254;-71
2023/05/03 19:25:16;;;;;;;;;5.67;5.67;;;;;;;;6372265;22;45230;-71
2023/05/03 19:27:41;;;;;;;;;6.67;5.67;;;;;;;;6372148;22;45207;-70
2023/05/03 19:30:06;;;;;;;;;7.00;7.00;;;;;;;;6372144;22;45360;-71
2023/05/03 19:32:37;;;;;;;;;7.00;5.67;;;;;;;;6372574;22;45158;-72
2023/05/03 19:35:02;;;;;;;;;6.00;6.00;;;;;;;;6342808;22;45362;-71
2023/05/03 19:37:27;;;;;;;;;6.00;4.67;;;;;;;;6371535;22;46149;-70
2023/05/03 19:39:53;;;;;;;;;7.33;6.33;;;;;;;;6372306;22;45290;-70
2023/05/03 19:42:18;;;;;;;;;5.33;5.33;;;;;;;;6372809;22;45199;-71
2023/05/03 19:44:43;;;;;;;;;7.33;6.00;;;;;;;;6372477;22;45199;-71
2023/05/03 19:47:08;;;;;;;;;6.67;6.67;;;;;;;;6371783;22;46201;-72
2023/05/03 19:49:33;;;;;;;;;9.00;7.33;;;;;;;;6372147;22;45286;-72
2023/05/03 19:52:00;;;;;;;;;5.67;5.67;;;;;;;;6371374;22;45243;-72
2023/05/03 19:54:26;;;;;;;;;8.67;6.00;;;;;;;;6343400;22;45643;-72
2023/05/03 19:56:51;;;;;;;;;9.00;6.00;;;;;;;;6372045;22;46894;-72
2023/05/03 19:59:17;;;;;;;;;6.33;6.00;;;;;;;;6370855;22;45209;-70
2023/05/03 20:01:43;;;;;;;;;8.67;7.00;;;;;;;;6371839;22;45169;-71
2023/05/03 20:04:09;;;;;;;;;9.00;6.00;;;;;;;;6371995;22;46009;-71
2023/05/03 20:06:34;;;;;;;;;8.00;5.67;;;;;;;;6370788;22;46853;-71
2023/05/03 20:08:59;;;;;;;;;10.67;10.67;;;;;;;;6371904;22;45175;-71
2023/05/03 20:11:24;;;;;;;;;9.00;8.00;;;;;;;;6372139;22;45156;-71
2023/05/03 20:13:50;;;;;;;;;9.00;9.00;;;;;;;;6372313;22;45218;-71
2023/05/03 20:16:15;;;;;;;;;9.67;9.67;;;;;;;;6371500;22;46033;-71
2023/05/03 20:18:41;;;;;;;;;8.00;8.00;;;;;;;;6372496;22;45153;-71
2023/05/03 20:21:06;;;;;;;;;8.00;8.00;;;;;;;;6371354;22;45297;-71
2023/05/03 20:23:31;;;;;;;;;6.67;6.67;;;;;;;;6372371;22;45251;-71
2023/05/03 20:25:57;;;;;;;;;12.33;7.33;;;;;;;;6371765;22;45400;-71
2023/05/03 20:28:22;;;;;;;;;8.00;5.67;;;;;;;;6371961;22;45338;-71
2023/05/03 20:30:47;;;;;;;;;9.33;8.33;;;;;;;;6372228;22;45226;-71
2023/05/03 20:33:12;;;;;;;;;9.33;8.67;;;;;;;;6372307;22;45233;-71
2023/05/03 20:35:37;;;;;;;;;7.00;6.00;;;;;;;;6371217;22;45391;-71
2023/05/03 20:38:04;;;;;;;;;14.33;9.33;;;;;;;;6371966;22;45249;-71
2023/05/03 20:40:31;;;;;;;;;9.33;8.00;;;;;;;;6371925;22;45294;-71
2023/05/03 20:42:56;;;;;;;;;17.33;10.33;;;;;;;;6370055;22;45309;-71
2023/05/03 20:45:21;;;;;;;;;9.33;8.00;;;;;;;;6371552;22;45187;-71
2023/05/03 20:47:47;;;;;;;;;9.00;9.00;;;;;;;;6372059;22;45276;-71
2023/05/03 20:50:12;;;;;;;;;5.67;5.67;;;;;;;;6371471;22;45289;-71
2023/05/03 20:52:37;;;;;;;;;7.33;6.67;;;;;;;;6371381;22;45136;-72
2023/05/03 20:55:02;;;;;;;;;10.67;9.67;;;;;;;;6371358;22;45201;-70
2023/05/03 20:57:27;;;;;;;;;7.67;7.67;;;;;;;;6371970;22;45137;-71
2023/05/03 20:59:53;;;;;;;;;8.33;8.33;;;;;;;;6342774;22;45219;-72
2023/05/03 21:02:18;;;;;;;;;9.33;8.33;;;;;;;;6342857;22;47424;-72
2023/05/03 21:04:43;;;;;;;;;9.00;9.00;;;;;;;;6371534;22;45346;-72
2023/05/03 21:07:09;;;;;;;;;8.00;7.33;;;;;;;;6371589;22;45224;-72
2023/05/03 21:09:35;;;;;;;;;9.67;8.67;;;;;;;;6371992;22;44954;-71
2023/05/03 21:12:00;;;;;;;;;11.00;9.67;;;;;;;;6371689;22;45201;-73
2023/05/03 21:14:27;;;;;;;;;11.00;9.67;;;;;;;;6342942;22;46398;-72
2023/05/03 21:16:52;;;;;;;;;12.67;12.33;;;;;;;;6371351;22;45280;-72